Time,TemperatureF,DewpointF,PressureIn,WindDirection,WindDirectionDegrees,WindSpeedMPH,WindSpeedGustMPH,Humidity,HourlyPrecipIn,Conditions,Clouds,dailyrainin,SolarRadiationWatts/m^2,SoftwareType,DateUTC
2013-05-02 00:00:00,68.1,62.0,29.99,East,86,2.0,5.0,81,0.00,SCT,SCT,0.00,0.0,WeatherDisplay:10.37,2013-05-02 10:00:00,
2013-05-02 00:10:00,67.9,61.9,29.99,East,101,5.0,8.0,81,0.00,SCT,SCT,0.00,0.0,WeatherDisplay:10.37,2013-05-02 10:10:00,
2013-05-02 00:20:00,67.9,62.2,29.98,ESE,106,3.0,9.0,82,0.00,FEW,SCT,0.00,0.0,WeatherDisplay:10.37,2013-05-02 10:20:00,
2013-05-02 00:30:00,67.6,61.9,29.98,ESE,111,1.0,8.0,82,0.00,FEW,SCT,0.00,0.0,WeatherDisplay:10.37,2013-05-02 10:30:00,
2013-05-02 00:40:00,67.2,61.5,29.98,East,89,0.0,4.0,82,0.00,FEW,SCT,0.00,0.0,WeatherDisplay:10.37,2013-05-02 10:40:00,
2013-05-02 00:50:00,66.7,61.0,29.98,East,86,0.0,2.0,82,0.00,FEW,SCT,0.00,0.0,WeatherDisplay:10.37,2013-05-02 10:50:00,
2013-05-02 01:00:00,66.3,61.3,29.98,East,92,2.0,4.0,84,0.00,FEW,SCT,0.00,0.0,WeatherDisplay:10.37,2013-05-02 11:00:00,
2013-05-02 01:10:00,66.2,61.2,29.97,East,83,2.0,5.0,84,0.00,FEW,SCT,0.00,0.0,WeatherDisplay:10.37,2013-05-02 11:10:00,
2013-05-02 01:20:00,66.0,61.0,29.97,ESE,123,1.0,3.0,84,0.00,FEW,SCT,0.00,0.0,WeatherDisplay:10.37,2013-05-02 11:20:00,
2013-05-02 01:30:00,65.9,61.0,29.97,East,90,0.0,6.0,84,0.00,FEW,SCT,0.00,0.0,WeatherDisplay:10.37,2013-05-02 11:30:00,
2013-05-02 01:40:00,65.8,60.8,29.96,East,96,0.0,0.0,84,0.00,FEW,SCT,0.00,0.0,WeatherDisplay:10.37,2013-05-02 11:40:00,
2013-05-02 01:50:00,65.5,60.5,29.96,East,86,0.0,3.0,84,0.00,FEW,SCT,0.00,0.0,WeatherDisplay:10.37,2013-05-02 11:50:00,
2013-05-02 02:00:00,65.3,60.6,29.95,East,86,0.0,4.0,85,0.00,FEW,SCT,0.00,0.0,WeatherDisplay:10.37,2013-05-02 12:00:00,
2013-05-02 02:10:00,64.8,60.2,29.95,ESE,106,0.0,10.0,85,0.00,CLR,SCT,0.00,0.0,WeatherDisplay:10.37,2013-05-02 12:10:00,
2013-05-02 02:20:00,64.3,59.7,29.96,East,90,3.0,6.0,85,0.00,CLR,SCT,0.00,0.0,WeatherDisplay:10.37,2013-05-02 12:20:00,
2013-05-02 02:30:00,64.2,59.9,29.95,East,88,0.0,5.0,86,0.00,CLR,SCT,0.00,0.0,WeatherDisplay:10.37,2013-05-02 12:30:00,
2013-05-02 02:40:00,64.2,59.9,29.95,East,86,0.0,3.0,86,0.00,CLR,SCT,0.00,0.0,WeatherDisplay:10.37,2013-05-02 12:40:00,
2013-05-02 02:50:00,63.9,59.6,29.95,SSE,155,0.0,4.0,86,0.00,CLR,SCT,0.00,0.0,WeatherDisplay:10.37,2013-05-02 12:50:00,
2013-05-02 03:00:00,63.4,59.1,29.95,South,176,1.0,2.0,86,0.00,CLR,SCT,0.00,0.0,WeatherDisplay:10.37,2013-05-02 13:00:00,
2013-05-02 03:10:00,63.0,59.1,29.95,East,101,2.0,7.0,87,0.00,CLR,SCT,0.00,0.0,WeatherDisplay:10.37,2013-05-02 13:10:00,
2013-05-02 03:20:00,63.2,59.3,29.95,East,85,0.0,5.0,87,0.00,CLR,SCT,0.00,0.0,WeatherDisplay:10.37,2013-05-02 13:20:00,
2013-05-02 03:30:00,63.3,59.0,29.95,East,80,0.0,1.0,86,0.00,CLR,SCT,0.00,0.0,WeatherDisplay:10.37,2013-05-02 13:30:00,
2013-05-02 03:40:00,63.0,58.4,29.95,East,97,0.0,3.0,85,0.00,CLR,SCT,0.00,0.0,WeatherDisplay:10.37,2013-05-02 13:40:00,
2013-05-02 03:50:00,62.5,58.3,29.96,East,100,1.0,2.0,86,0.00,CLR,SCT,0.00,0.0,WeatherDisplay:10.37,2013-05-02 13:50:00,
2013-05-02 04:00:00,62.1,58.5,29.96,East,91,5.0,9.0,88,0.00,CLR,SCT,0.00,0.0,WeatherDisplay:10.37,2013-05-02 14:00:00,
2013-05-02 04:10:00,62.9,59.9,29.96,ESE,108,1.0,5.0,90,0.00,CLR,SCT,0.00,0.0,WeatherDisplay:10.37,2013-05-02 14:10:00,
2013-05-02 04:20:00,63.2,59.3,29.96,SE,146,3.0,7.0,87,0.00,CLR,SCT,0.00,0.0,WeatherDisplay:10.37,2013-05-02 14:20:00,
2013-05-02 04:30:00,63.3,59.7,29.96,SE,143,1.0,6.0,88,0.00,CLR,SCT,0.00,0.0,WeatherDisplay:10.37,2013-05-02 14:30:00,
2013-05-02 04:40:00,63.5,59.6,29.96,East,100,2.0,5.0,87,0.00,CLR,SCT,0.00,0.0,WeatherDisplay:10.37,2013-05-02 14:40:00,
2013-05-02 04:50:00,63.5,59.6,29.95,East,98,0.0,3.0,87,0.00,CLR,SCT,0.00,0.0,WeatherDisplay:10.37,2013-05-02 14:50:00,
2013-05-02 05:00:00,63.1,59.2,29.96,East,98,2.0,3.0,87,0.00,CLR,SCT,0.00,0.0,WeatherDisplay:10.37,2013-05-02 15:00:00,
2013-05-02 05:10:00,63.0,59.3,29.95,East,90,0.0,7.0,88,0.00,CLR,SCT,0.00,0.0,WeatherDisplay:10.37,2013-05-02 15:10:00,
2013-05-02 05:20:00,63.0,58.7,29.96,East,83,0.0,0.0,86,0.00,CLR,SCT,0.00,0.0,WeatherDisplay:10.37,2013-05-02 15:20:00,
2013-05-02 05:30:00,62.7,58.8,29.96,East,83,0.0,3.0,87,0.00,CLR,SCT,0.00,0.0,WeatherDisplay:10.37,2013-05-02 15:30:00,
2013-05-02 05:40:00,62.3,58.4,29.97,ESE,105,1.0,5.0,87,0.00,CLR,SCT,0.00,0.0,WeatherDisplay:10.37,2013-05-02 15:40:00,
2013-05-02 05:50:00,62.4,58.8,29.97,East,88,1.0,4.0,88,0.00,CLR,SCT,0.00,0.0,WeatherDisplay:10.37,2013-05-02 15:50:00,
2013-05-02 06:00:00,62.8,59.2,29.97,East,97,0.0,4.0,88,0.00,CLR,SCT,0.00,0.1,WeatherDisplay:10.37,2013-05-02 16:00:00,
2013-05-02 06:10:00,63.5,59.6,29.97,East,87,0.0,8.0,87,0.00,CLR,SCT,0.00,0.4,WeatherDisplay:10.37,2013-05-02 16:10:00,
2013-05-02 06:20:00,64.0,59.4,29.97,ESE,123,2.0,5.0,85,0.00,CLR,SCT,0.00,1.1,WeatherDisplay:10.37,2013-05-02 16:20:00,
2013-05-02 06:30:00,64.1,59.2,29.98,ESE,123,0.0,3.0,84,0.00,CLR,SCT,0.00,1.8,WeatherDisplay:10.37,2013-05-02 16:30:00,
2013-05-02 06:40:00,64.3,60.0,29.98,ESE,116,2.0,12.0,86,0.00,CLR,SCT,0.00,4.1,WeatherDisplay:10.37,2013-05-02 16:40:00,
2013-05-02 06:50:00,64.7,60.1,29.98,SE,134,2.0,13.0,85,0.00,CLR,SCT,0.00,10.1,WeatherDisplay:10.37,2013-05-02 16:50:00,
2013-05-02 07:00:00,65.3,60.3,29.99,ESE,109,6.0,9.0,84,0.00,CLR,SCT,0.00,21.8,WeatherDisplay:10.37,2013-05-02 17:00:00,
2013-05-02 07:10:00,66.4,61.1,29.99,East,93,6.0,14.0,83,0.00,CLR,SCT,0.00,8.7,WeatherDisplay:10.37,2013-05-02 17:10:00,
2013-05-02 07:20:00,67.8,61.4,29.98,East,85,12.0,18.0,80,0.00,SCT,SCT,0.00,10.1,WeatherDisplay:10.37,2013-05-02 17:20:00,
2013-05-02 07:30:00,68.9,61.7,29.99,East,100,10.0,22.0,78,0.00,SCT,SCT,0.00,29.5,WeatherDisplay:10.37,2013-05-02 17:30:00,
2013-05-02 07:40:00,69.6,62.0,29.99,East,98,7.0,15.0,77,0.00,SCT,SCT,0.00,111.8,WeatherDisplay:10.37,2013-05-02 17:40:00,
2013-05-02 07:50:00,70.4,62.1,29.99,ESE,108,6.0,20.0,75,0.00,SCT,SCT,0.00,131.3,WeatherDisplay:10.37,2013-05-02 17:50:00,
2013-05-02 08:00:00,71.6,62.9,30.00,SE,144,3.0,12.0,74,0.00,SCT,SCT,0.00,152.0,WeatherDisplay:10.37,2013-05-02 18:00:00,
2013-05-02 08:10:00,72.8,62.0,30.00,ESE,110,6.0,12.0,69,0.00,SCT,SCT,0.00,171.5,WeatherDisplay:10.37,2013-05-02 18:10:00,
2013-05-02 08:20:00,74.1,62.8,29.99,ESE,102,2.0,10.0,68,0.00,FEW,SCT,0.00,209.2,WeatherDisplay:10.37,2013-05-02 18:20:00,
2013-05-02 08:30:00,74.4,64.0,30.00,SSW,198,3.0,8.0,70,0.00,FEW,SCT,0.00,110.8,WeatherDisplay:10.37,2013-05-02 18:30:00,
2013-05-02 08:40:00,75.1,63.4,30.00,SE,138,7.0,12.0,67,0.00,FEW,SCT,0.00,255.7,WeatherDisplay:10.37,2013-05-02 18:40:00,
2013-05-02 08:50:00,76.5,63.4,30.00,East,91,6.0,12.0,64,0.00,FEW,SCT,0.00,290.6,WeatherDisplay:10.37,2013-05-02 18:50:00,
2013-05-02 09:00:00,76.9,62.0,30.00,East,97,9.0,16.0,60,0.00,FEW,SCT,0.00,154.5,WeatherDisplay:10.37,2013-05-02 19:00:00,
2013-05-02 09:10:00,77.4,63.4,30.00,East,93,6.0,12.0,62,0.00,FEW,SCT,0.00,140.6,WeatherDisplay:10.37,2013-05-02 19:10:00,
2013-05-02 09:20:00,77.7,63.2,30.01,SE,142,6.0,20.0,61,0.00,FEW,SCT,0.00,115.7,WeatherDisplay:10.37,2013-05-02 19:20:00,
2013-05-02 09:30:00,75.9,62.4,30.00,East,92,8.0,15.0,63,0.00,FEW,SCT,0.00,136.2,WeatherDisplay:10.37,2013-05-02 19:30:00,
2013-05-02 09:40:00,75.1,62.1,30.00,East,95,7.0,18.0,64,0.00,FEW,SCT,0.00,133.5,WeatherDisplay:10.37,2013-05-02 19:40:00,
2013-05-02 09:50:00,74.6,62.5,30.00,ESE,113,7.0,15.0,66,0.00,FEW,SCT,0.00,124.8,WeatherDisplay:10.37,2013-05-02 19:50:00,
2013-05-02 10:00:00,74.5,63.2,30.01,ESE,118,3.0,12.0,68,0.00,FEW,SCT,0.00,151.6,WeatherDisplay:10.37,2013-05-02 20:00:00,
2013-05-02 10:10:00,75.0,62.0,30.00,ESE,118,6.0,13.0,64,0.00,FEW,SCT,0.00,292.2,WeatherDisplay:10.37,2013-05-02 20:10:00,
2013-05-02 10:20:00,77.2,60.3,30.00,ESE,105,6.0,15.0,56,0.00,SCT,SCT,0.00,231.8,WeatherDisplay:10.37,2013-05-02 20:20:00,
2013-05-02 10:30:00,78.7,63.2,30.00,East,92,5.0,12.0,59,0.00,SCT,SCT,0.00,539.2,WeatherDisplay:10.37,2013-05-02 20:30:00,
2013-05-02 10:40:00,80.1,63.0,30.00,East,82,5.0,15.0,56,0.00,SCT,SCT,0.00,537.1,WeatherDisplay:10.37,2013-05-02 20:40:00,
2013-05-02 10:50:00,81.0,63.8,30.00,ENE,69,6.0,14.0,56,0.00,SCT,SCT,0.00,594.3,WeatherDisplay:10.37,2013-05-02 20:50:00,
2013-05-02 11:00:00,81.4,62.1,30.00,East,97,8.0,14.0,52,0.00,SCT,SCT,0.00,188.4,WeatherDisplay:10.37,2013-05-02 21:00:00,
2013-05-02 11:10:00,79.7,65.1,30.00,ESE,110,3.0,14.0,61,0.00,SCT,SCT,0.00,251.8,WeatherDisplay:10.37,2013-05-02 21:10:00,
2013-05-02 11:20:00,78.0,62.5,30.00,ENE,64,9.0,12.0,59,0.00,SCT,SCT,0.00,198.7,WeatherDisplay:10.37,2013-05-02 21:20:00,
2013-05-02 11:30:00,77.1,63.0,30.00,East,99,7.0,10.0,62,0.00,SCT,SCT,0.00,188.9,WeatherDisplay:10.37,2013-05-02 21:30:00,
2013-05-02 11:40:00,76.3,64.1,30.00,East,83,5.0,15.0,66,0.00,SCT,SCT,0.00,207.1,WeatherDisplay:10.37,2013-05-02 21:40:00,
2013-05-02 11:50:00,76.3,63.2,29.99,East,94,9.0,14.0,64,0.00,SCT,SCT,0.00,228.5,WeatherDisplay:10.37,2013-05-02 21:50:00,
2013-05-02 12:00:00,76.6,63.9,29.99,East,85,8.0,18.0,65,0.00,SCT,SCT,0.00,271.4,WeatherDisplay:10.37,2013-05-02 22:00:00,
2013-05-02 12:10:00,78.5,64.8,29.99,East,94,10.0,15.0,63,0.00,SCT,SCT,0.00,191.4,WeatherDisplay:10.37,2013-05-02 22:10:00,
2013-05-02 12:20:00,78.7,65.0,29.98,East,95,8.0,15.0,63,0.00,SCT,SCT,0.00,433.1,WeatherDisplay:10.37,2013-05-02 22:20:00,
2013-05-02 12:30:00,78.7,65.9,29.98,East,93,8.0,15.0,65,0.00,SCT,SCT,0.00,683.6,WeatherDisplay:10.37,2013-05-02 22:30:00,
2013-05-02 12:40:00,80.1,65.4,29.98,East,80,6.0,14.0,61,0.00,SCT,SCT,0.00,718.2,WeatherDisplay:10.37,2013-05-02 22:40:00,
2013-05-02 12:50:00,79.5,66.3,29.98,ENE,77,8.0,15.0,64,0.00,SCT,SCT,0.00,636.8,WeatherDisplay:10.37,2013-05-02 22:50:00,
2013-05-02 13:00:00,80.9,66.7,29.97,East,86,13.0,17.0,62,0.00,SCT,SCT,0.00,301.3,WeatherDisplay:10.37,2013-05-02 23:00:00,
2013-05-02 13:10:00,81.0,66.8,29.97,East,92,7.0,14.0,62,0.00,SCT,SCT,0.00,636.7,WeatherDisplay:10.37,2013-05-02 23:10:00,
2013-05-02 13:20:00,81.0,66.8,29.97,East,94,7.0,7.0,62,0.00,SCT,SCT,0.00,180.9,WeatherDisplay:10.37,2013-05-02 23:20:00,
2013-05-02 13:30:00,81.0,66.8,29.97,East,94,7.0,7.0,62,0.00,SCT,SCT,0.00,556.2,WeatherDisplay:10.37,2013-05-02 23:30:00,
2013-05-02 13:40:00,81.0,66.8,29.97,East,94,7.0,7.0,62,0.00,SCT,SCT,0.00,581.3,WeatherDisplay:10.37,2013-05-02 23:40:00,
2013-05-02 13:50:00,81.0,66.8,29.97,East,94,7.0,7.0,62,0.00,SCT,SCT,0.00,161.8,WeatherDisplay:10.37,2013-05-02 23:50:00,
2013-05-02 14:00:00,81.0,66.8,29.97,East,94,7.0,7.0,62,0.00,SCT,SCT,0.00,523.2,WeatherDisplay:10.37,2013-05-03 00:00:00,
2013-05-02 14:10:00,81.0,66.8,29.97,East,94,7.0,7.0,62,0.00,SCT,SCT,0.00,583.4,WeatherDisplay:10.37,2013-05-03 00:10:00,
2013-05-02 14:20:00,81.0,66.8,29.97,East,94,7.0,7.0,62,0.00,SCT,SCT,0.00,564.3,WeatherDisplay:10.37,2013-05-03 00:20:00,
2013-05-02 14:30:00,81.0,66.8,29.97,East,94,7.0,7.0,62,0.00,SCT,SCT,0.00,208.4,WeatherDisplay:10.37,2013-05-03 00:30:00,
2013-05-02 14:40:00,81.0,66.8,29.97,East,94,7.0,7.0,62,0.00,SCT,SCT,0.00,326.1,WeatherDisplay:10.37,2013-05-03 00:40:00,
2013-05-02 14:50:00,81.0,66.8,29.97,East,94,7.0,7.0,62,0.00,SCT,SCT,0.00,272.4,WeatherDisplay:10.37,2013-05-03 00:50:00,
2013-05-02 15:00:00,81.0,66.8,29.97,East,94,7.0,7.0,62,0.00,SCT,SCT,0.00,442.5,WeatherDisplay:10.37,2013-05-03 01:00:00,
2013-05-02 15:10:00,81.0,66.8,29.97,East,94,7.0,7.0,62,0.00,SCT,SCT,0.00,126.6,WeatherDisplay:10.37,2013-05-03 01:10:00,
2013-05-02 15:20:00,81.0,66.8,29.97,East,94,7.0,7.0,62,0.00,SCT,SCT,0.00,340.0,WeatherDisplay:10.37,2013-05-03 01:20:00,
2013-05-02 15:30:00,81.0,66.8,29.97,East,94,7.0,7.0,62,0.00,SCT,SCT,0.00,350.1,WeatherDisplay:10.37,2013-05-03 01:30:00,
2013-05-02 15:40:00,81.0,66.8,29.97,East,94,7.0,7.0,62,0.00,SCT,SCT,0.00,306.9,WeatherDisplay:10.37,2013-05-03 01:40:00,
2013-05-02 15:50:00,81.0,66.8,29.97,East,94,7.0,7.0,62,0.00,SCT,SCT,0.00,221.4,WeatherDisplay:10.37,2013-05-03 01:50:00,
2013-05-02 16:00:00,81.0,66.8,29.97,East,94,7.0,7.0,62,0.00,SCT,SCT,0.00,263.2,WeatherDisplay:10.37,2013-05-03 02:00:00,
2013-05-02 16:10:00,81.0,66.8,29.97,East,94,7.0,7.0,62,0.00,FEW,SCT,0.00,199.2,WeatherDisplay:10.37,2013-05-03 02:10:00,
2013-05-02 16:20:00,81.0,66.8,29.97,East,94,7.0,7.0,62,0.00,FEW,SCT,0.00,250.4,WeatherDisplay:10.37,2013-05-03 02:20:00,
2013-05-02 16:30:00,81.0,66.8,29.97,East,94,7.0,7.0,62,0.00,FEW,SCT,0.00,67.5,WeatherDisplay:10.37,2013-05-03 02:30:00,
2013-05-02 16:40:00,81.0,66.8,29.97,East,94,7.0,7.0,62,0.00,FEW,SCT,0.00,170.0,WeatherDisplay:10.37,2013-05-03 02:40:00,
2013-05-02 16:50:00,81.0,66.8,29.97,East,94,7.0,7.0,62,0.00,FEW,SCT,0.00,81.3,WeatherDisplay:10.37,2013-05-03 02:50:00,
2013-05-02 17:00:00,81.0,66.8,29.97,East,94,7.0,7.0,62,0.00,FEW,SCT,0.00,131.4,WeatherDisplay:10.37,2013-05-03 03:00:00,
2013-05-02 17:10:00,81.0,66.8,29.97,East,94,7.0,7.0,62,0.00,SCT,SCT,0.00,108.9,WeatherDisplay:10.37,2013-05-03 03:10:00,
2013-05-02 17:20:00,81.0,66.8,29.97,East,94,7.0,7.0,62,0.00,SCT,SCT,0.00,59.5,WeatherDisplay:10.37,2013-05-03 03:20:00,
2013-05-02 17:30:00,81.0,66.8,29.97,East,94,7.0,7.0,62,0.00,SCT,SCT,0.00,72.1,WeatherDisplay:10.37,2013-05-03 03:30:00,
2013-05-02 17:40:00,81.0,66.8,29.97,East,94,7.0,7.0,62,0.00,SCT,SCT,0.00,57.0,WeatherDisplay:10.37,2013-05-03 03:40:00,
2013-05-02 17:50:00,81.0,66.8,29.97,East,94,7.0,7.0,62,0.00,SCT,SCT,0.00,13.0,WeatherDisplay:10.37,2013-05-03 03:50:00,
2013-05-02 18:00:00,81.0,66.8,29.97,East,94,7.0,7.0,62,0.00,SCT,SCT,0.00,10.1,WeatherDisplay:10.37,2013-05-03 04:00:00,
2013-05-02 18:10:00,81.0,66.8,29.97,East,94,7.0,7.0,62,0.00,SCT,SCT,0.00,7.1,WeatherDisplay:10.37,2013-05-03 04:10:00,
2013-05-02 18:20:00,81.0,66.8,29.97,East,94,7.0,7.0,62,0.00,SCT,SCT,0.00,6.6,WeatherDisplay:10.37,2013-05-03 04:20:00,
2013-05-02 18:30:00,81.0,66.8,29.97,East,94,7.0,7.0,62,0.00,SCT,SCT,0.00,5.0,WeatherDisplay:10.37,2013-05-03 04:30:00,
2013-05-02 18:40:00,81.0,66.8,29.97,East,94,7.0,7.0,62,0.00,SCT,SCT,0.00,0.4,WeatherDisplay:10.37,2013-05-03 04:40:00,
2013-05-02 18:50:00,81.0,66.8,29.97,East,94,7.0,7.0,62,0.00,SCT,SCT,0.00,0.0,WeatherDisplay:10.37,2013-05-03 04:50:00,
2013-05-02 19:00:00,81.0,66.8,29.97,East,94,7.0,7.0,62,0.00,SCT,SCT,0.00,0.0,WeatherDisplay:10.37,2013-05-03 05:00:00,
2013-05-02 19:10:00,81.0,66.8,29.97,East,94,7.0,7.0,62,0.00,SCT,SCT,0.00,0.0,WeatherDisplay:10.37,2013-05-03 05:10:00,
2013-05-02 19:20:00,81.0,66.8,29.97,East,94,7.0,7.0,62,0.00,FEW,SCT,0.00,0.0,WeatherDisplay:10.37,2013-05-03 05:20:00,
2013-05-02 19:30:00,81.0,66.8,29.97,East,94,7.0,7.0,62,0.00,FEW,SCT,0.00,0.0,WeatherDisplay:10.37,2013-05-03 05:30:00,
2013-05-02 19:40:00,81.0,66.8,29.97,East,94,7.0,7.0,62,0.00,FEW,SCT,0.00,0.0,WeatherDisplay:10.37,2013-05-03 05:40:00,
2013-05-02 19:50:00,81.0,66.8,29.97,East,94,7.0,7.0,62,0.00,FEW,SCT,0.00,0.0,WeatherDisplay:10.37,2013-05-03 05:50:00,
2013-05-02 20:00:00,81.0,66.8,29.97,East,94,7.0,7.0,62,0.00,FEW,SCT,0.00,0.0,WeatherDisplay:10.37,2013-05-03 06:00:00,
2013-05-02 20:10:00,81.0,66.8,29.97,East,94,7.0,7.0,62,0.00,FEW,SCT,0.00,0.0,WeatherDisplay:10.37,2013-05-03 06:10:00,
2013-05-02 20:20:00,81.0,66.8,29.97,East,94,7.0,7.0,62,0.00,FEW,SCT,0.00,0.0,WeatherDisplay:10.37,2013-05-03 06:20:00,
2013-05-02 20:30:00,67.2,60.4,30.00,ESE,108,0.0,6.0,79,0.00,FEW,SCT,0.00,0.0,WeatherDisplay:10.37,2013-05-03 06:30:00,
2013-05-02 20:40:00,66.7,60.7,30.00,ESE,115,0.0,1.0,81,0.00,FEW,SCT,0.00,0.0,WeatherDisplay:10.37,2013-05-03 06:40:00,
2013-05-02 20:50:00,66.3,61.0,30.00,ESE,115,0.0,3.0,83,0.00,FEW,SCT,0.00,0.0,WeatherDisplay:10.37,2013-05-03 06:50:00,
2013-05-02 21:00:00,65.9,60.6,30.01,ESE,115,0.0,2.0,83,0.00,FEW,SCT,0.00,0.0,WeatherDisplay:10.37,2013-05-03 07:00:00,
2013-05-02 21:10:00,65.5,60.6,30.01,ESE,105,0.0,3.0,84,0.00,FEW,SCT,0.00,0.0,WeatherDisplay:10.37,2013-05-03 07:10:00,
2013-05-02 21:20:00,65.2,60.6,30.01,ESE,102,0.0,3.0,85,0.00,FEW,SCT,0.00,0.0,WeatherDisplay:10.37,2013-05-03 07:20:00,
2013-05-02 21:30:00,65.0,60.7,30.01,ESE,103,0.0,3.0,86,0.00,FEW,SCT,0.00,0.0,WeatherDisplay:10.37,2013-05-03 07:30:00,
2013-05-02 21:40:00,64.9,60.6,30.01,ESE,103,0.0,4.0,86,0.00,FEW,SCT,0.00,0.0,WeatherDisplay:10.37,2013-05-03 07:40:00,
2013-05-02 21:50:00,64.8,60.2,30.02,ESE,105,0.0,3.0,85,0.00,FEW,SCT,0.00,0.0,WeatherDisplay:10.37,2013-05-03 07:50:00,
2013-05-02 22:00:00,64.6,60.3,30.02,ESE,112,0.0,3.0,86,0.00,FEW,SCT,0.00,0.0,WeatherDisplay:10.37,2013-05-03 08:00:00,
2013-05-02 22:10:00,64.6,60.3,30.02,ESE,119,0.0,4.0,86,0.00,FEW,SCT,0.00,0.0,WeatherDisplay:10.37,2013-05-03 08:10:00,
2013-05-02 22:20:00,64.7,60.4,30.01,ESE,119,0.0,2.0,86,0.00,FEW,SCT,0.00,0.0,WeatherDisplay:10.37,2013-05-03 08:20:00,
2013-05-02 22:30:00,64.8,60.5,30.01,ESE,109,2.0,3.0,86,0.00,FEW,SCT,0.00,0.0,WeatherDisplay:10.37,2013-05-03 08:30:00,
2013-05-02 22:40:00,64.9,60.9,30.01,East,99,3.0,5.0,87,0.00,FEW,SCT,0.00,0.0,WeatherDisplay:10.37,2013-05-03 08:40:00,
2013-05-02 22:50:00,65.3,60.7,30.02,East,98,1.0,6.0,85,0.00,FEW,SCT,0.00,0.0,WeatherDisplay:10.37,2013-05-03 08:50:00,
2013-05-02 23:00:00,65.8,60.8,30.01,East,97,0.0,4.0,84,0.00,FEW,SCT,0.00,0.0,WeatherDisplay:10.37,2013-05-03 09:00:00,
2013-05-02 23:10:00,66.1,60.8,30.01,ESE,106,1.0,5.0,83,0.00,CLR,SCT,0.00,0.0,WeatherDisplay:10.37,2013-05-03 09:10:00,
2013-05-02 23:20:00,66.3,60.3,30.01,East,100,3.0,5.0,81,0.00,CLR,SCT,0.00,0.0,WeatherDisplay:10.37,2013-05-03 09:20:00,
2013-05-02 23:30:00,66.5,60.5,30.01,ESE,111,0.0,3.0,81,0.00,CLR,SCT,0.00,0.0,WeatherDisplay:10.37,2013-05-03 09:30:00,
2013-05-02 23:40:00,66.6,60.6,30.01,ESE,111,0.0,2.0,81,0.00,CLR,SCT,0.00,0.0,WeatherDisplay:10.37,2013-05-03 09:40:00,
2013-05-02 23:50:00,66.6,60.6,30.01,ENE,76,1.0,4.0,81,0.00,CLR,SCT,0.00,0.0,WeatherDisplay:10.37,2013-05-03 09:50:00,